Sinton, TX

08:08 CDT le 27 août 2014 (GMT -0500)
Ingleside | Change Station
CLOSE
Current Station
Aéroport
Location: Ingleside,
Altitude: 16 ft
Stations météo à proximité

Alt. 16 ft 27.91 °N, 97.21 °W | Updated 13 minutes ago

Scattered Clouds
Nuages épars
79 ° F
Paraît 79 ° F
N
8
Vent Variable Vent de Nord

Aujourd'hui
Haut(e) -- | Bas -- ° F
--% Risque de précip.
Hier
Haut(e) -- | Bas -- ° F
Precip. -- pouce
7:06 AM 7:56 PM
Lune montante, 3% visible
Pression 29.94 pouce
Visibilité 10.0 Miles terrestres
Nuages Nuages épars 600 ft
Point de rosée 75 ° F
Humidité 88%
Précipitations 0.00 pouce
Profondeur de la couche neigeuse Non disponible.
UV 0 sur 12
Pollen 7.00 sur 12
Ozone Bon
Flu Activity Non disponible.
METAR KTFP 271255Z AUTO 35007KT 10SM SCT006 26/24 A2994 RMK AO2 T02610239

More Conditions Fewer Conditions

Pression 29.94 pouce
Visibilité 10.0 Miles terrestres
Nuages Nuages épars 600 ft
Point de rosée 75 ° F
Humidité 88%
Précipitations 0.00 pouce
Profondeur de la couche neigeuse Non disponible.
UV 0 sur 12
Pollen 7.00 sur 12
Ozone Bon
Flu Activity Non disponible.
METAR KTFP 271255Z AUTO 35007KT 10SM SCT006 26/24 A2994 RMK AO2 T02610239

More Conditions Fewer Conditions

10-Day Weather Forecast

Almanac

Astronomie

Aug. 27, 2014 Lever Coucher
Temps réel 07:06 CDT 19:56 CDT
Crépuscule civil 06:42 CDT 20:20 CDT
Crépuscule nautique 06:13 CDT 20:48 CDT
Crépuscule astronomique 05:44 CDT 21:17 CDT
Lune 08:50 CDT 21:05 CDT
Durée de lumière visible 13h 38m
Longueur du jour
12h 50m
Tomorrow will be 1m 33s shorter.
Lune montante, 3% of the Moon is Illuminated
Aujourd'hui
Lune montante
Sep 2
Premier quartier
Sep 8
Pleine lune
Sep 15
Dernier quartier
Sep 24
Nouveau

Extrêmes aujourd'hui

State Highs State Lows

Community

WunderPhotos

Upload Photos

1,747,680 Photos téléchargées !

Nearby

Qualité de l'air

  Qualité de l'air Indice de la qualité de l'air Polluant
Hier Bon
OZONE
Actuel Bon
OZONE
mercredi Bon
OZONE
mercredi Bon
PM10
jeudi Bon
OZONE
jeudi Bon
PM10
vendredi Bon
OZONE
vendredi Bon
PM10

Épaisseur de neige

Station Depth Altitude
Pas de nouvelles chutes de neige

Activité sismique

Ville Distance Mag. Time & Date
No recent earthquake activity has been reported nearby.
Minimum magnitude displayed is 2.5.

Températures des eaux côtières

Lieu Température
Baffin Bay Point of Rocks, TX 82.0 ° F
South Bird Island, TX 86.0 ° F
Packery Channel, TX 84.9 ° F
Port Aransas, TX 82.9 ° F
Malaquite Beach (Corpus Christi), TX 84.9 ° F

Stations météo à proximité